TimeMST,TemperatureF,Dew PointF,Humidity,Sea Level PressureIn,VisibilityMPH,Wind Direction,Wind SpeedMPH,Gust SpeedMPH,PrecipitationIn,Events,Conditions,WindDirDegrees,DateUTC
12:53 AM,46.0,37.0,71,29.90,10.0,NE,16.1,23.0,N/A,,Mostly Cloudy,50,2012-12-06 07:53:00
1:53 AM,43.0,28.9,58,29.95,10.0,NE,16.1,-,N/A,,Mostly Cloudy,50,2012-12-06 08:53:00
2:53 AM,42.1,27.0,55,29.99,10.0,NE,16.1,25.3,N/A,,Overcast,50,2012-12-06 09:53:00
3:53 AM,39.0,27.0,62,30.03,7.0,NE,13.8,-,N/A,,Overcast,40,2012-12-06 10:53:00
5:26 AM,33.8,28.4,81,30.05,2.0,North,12.7,-,0.00,Snow,Light Snow,360,2012-12-06 12:26:00
5:44 AM,33.8,28.4,81,30.05,6.0,ENE,8.1,-,0.00,Snow,Light Snow,70,2012-12-06 12:44:00
5:53 AM,35.1,28.0,76,30.09,10.0,East,5.8,-,0.00,,Overcast,80,2012-12-06 12:53:00
6:53 AM,36.0,26.1,67,30.10,10.0,ESE,3.5,-,N/A,,Overcast,110,2012-12-06 13:53:00
7:53 AM,34.0,28.9,82,30.12,7.0,West,3.5,-,0.00,Snow,Light Snow,260,2012-12-06 14:53:00
8:53 AM,34.0,28.9,82,30.14,10.0,NE,10.4,-,N/A,,Overcast,40,2012-12-06 15:53:00
9:01 AM,33.8,28.4,81,30.08,10.0,NE,9.2,-,N/A,,Overcast,50,2012-12-06 16:01:00
9:40 AM,33.8,28.4,81,30.09,10.0,ENE,4.6,-,N/A,,Overcast,60,2012-12-06 16:40:00
9:53 AM,34.0,28.0,79,30.15,10.0,East,4.6,-,N/A,,Overcast,90,2012-12-06 16:53:00
10:02 AM,33.8,26.6,75,30.09,10.0,Calm,Calm,-,N/A,,Overcast,0,2012-12-06 17:02:00
10:53 AM,36.0,26.1,67,30.13,10.0,Calm,Calm,-,N/A,,Overcast,0,2012-12-06 17:53:00
11:53 AM,37.0,24.1,59,30.09,10.0,SSE,4.6,-,N/A,,Overcast,160,2012-12-06 18:53:00
12:53 PM,39.9,19.9,45,30.06,10.0,Calm,Calm,-,N/A,,Overcast,0,2012-12-06 19:53:00
1:53 PM,39.9,19.0,43,30.03,10.0,ESE,5.8,-,N/A,,Mostly Cloudy,120,2012-12-06 20:53:00
2:53 PM,41.0,21.0,45,30.02,10.0,SE,4.6,-,N/A,,Overcast,140,2012-12-06 21:53:00
3:53 PM,41.0,21.0,45,30.02,10.0,SE,9.2,-,N/A,,Overcast,140,2012-12-06 22:53:00
4:53 PM,28.9,19.9,69,30.04,10.0,SE,6.9,-,N/A,,Partly Cloudy,130,2012-12-06 23:53:00
5:53 PM,30.0,19.9,66,30.03,10.0,SE,8.1,-,N/A,,Clear,140,2012-12-07 00:53:00
6:53 PM,28.9,19.0,67,30.03,10.0,SE,8.1,-,N/A,,Partly Cloudy,140,2012-12-07 01:53:00
7:53 PM,30.0,18.0,61,30.01,10.0,East,6.9,-,N/A,,Clear,100,2012-12-07 02:53:00
8:53 PM,32.0,19.9,61,29.98,10.0,ENE,5.8,-,N/A,,Overcast,70,2012-12-07 03:53:00
9:53 PM,36.0,19.0,50,29.95,10.0,SSE,10.4,-,N/A,,Partly Cloudy,150,2012-12-07 04:53:00
10:53 PM,36.0,21.9,57,29.92,10.0,South,16.1,-,N/A,,Partly Cloudy,190,2012-12-07 05:53:00
11:53 PM,35.1,24.1,64,29.88,10.0,SSW,10.4,21.9,N/A,,Mostly Cloudy,200,2012-12-07 06:53:00